Time;durP1;ratioP1;P1;durP2;ratioP2;P2;SDS_P1;SDS_P2;PMS_P1;PMS_P2;Temp;Humidity;BMP_temperature;BMP_pressure;BME280_temperature;BME280_humidity;BME280_pressure;Samples;Min_cycle;Max_cycle;Signal;HPM_P1;HPM_P2
2024/05/01 00:01:20;;;;;;;18.73;8.05;;;;;;;16.62;100.00;101305.25;5388179;26;93832;-80
2024/05/01 00:03:46;;;;;;;12.23;8.13;;;;;;;16.61;100.00;101306.19;5389913;26;94679;-81
2024/05/01 00:06:11;;;;;;;14.25;8.18;;;;;;;16.77;100.00;101340.72;5350247;26;94605;-80
2024/05/01 00:08:37;;;;;;;14.70;8.40;;;;;;;16.71;100.00;101320.63;5388807;26;94407;-80
2024/05/01 00:11:02;;;;;;;20.50;9.00;;;;;;;16.72;100.00;101332.13;5386217;26;93867;-81
2024/05/01 00:13:27;;;;;;;12.68;8.00;;;;;;;16.73;100.00;101317.91;5386829;26;93922;-80
2024/05/01 00:15:53;;;;;;;13.23;8.57;;;;;;;16.71;100.00;101322.44;5386579;26;94915;-80
2024/05/01 00:18:18;;;;;;;17.98;9.23;;;;;;;16.71;100.00;101333.06;5412930;25;107195;-80
2024/05/01 00:20:43;;;;;;;13.25;8.50;;;;;;;16.71;100.00;101349.03;5423769;25;93857;-81
2024/05/01 00:23:10;;;;;;;15.63;8.80;;;;;;;16.69;100.00;101361.59;5425544;25;94125;-81
2024/05/01 00:25:36;;;;;;;18.35;9.05;;;;;;;16.68;100.00;101362.50;5395237;25;94670;-80
2024/05/01 00:28:01;;;;;;;24.33;10.60;;;;;;;16.67;100.00;101366.97;5392550;25;94574;-80
2024/05/01 00:30:27;;;;;;;16.65;9.75;;;;;;;16.60;100.00;101334.59;5395922;25;94017;-80
2024/05/01 00:32:53;;;;;;;17.75;9.02;;;;;;;16.45;100.00;101308.94;5431131;25;94158;-82
2024/05/01 00:35:19;;;;;;;23.17;10.27;;;;;;;16.33;100.00;101317.59;5424065;25;94389;-82
2024/05/01 00:37:44;;;;;;;19.40;10.27;;;;;;;16.27;100.00;101317.97;5423270;25;94274;-82
2024/05/01 00:40:09;;;;;;;15.45;8.40;;;;;;;16.21;100.00;101332.47;5393769;25;94066;-82
2024/05/01 00:42:35;;;;;;;19.75;8.30;;;;;;;16.18;100.00;101368.97;5421801;25;94786;-82
2024/05/01 00:45:02;;;;;;;15.70;5.70;;;;;;;16.13;100.00;101379.88;5424537;25;94668;-82
2024/05/01 00:47:28;;;;;;;11.98;4.72;;;;;;;16.04;100.00;101375.94;5425312;25;94497;-81
2024/05/01 00:49:55;;;;;;;10.77;5.60;;;;;;;16.00;100.00;101365.59;5422390;25;93827;-82
2024/05/01 00:52:20;;;;;;;12.43;5.93;;;;;;;15.92;100.00;101358.06;5394989;25;93945;-82
2024/05/01 00:54:46;;;;;;;16.15;6.35;;;;;;;16.00;100.00;101377.06;5424795;25;94375;-82
2024/05/01 00:57:11;;;;;;;17.30;6.57;;;;;;;15.86;100.00;101353.94;5391456;25;96737;-81
2024/05/01 00:59:38;;;;;;;15.95;7.05;;;;;;;15.91;100.00;101351.00;5435905;25;94156;-80
2024/05/01 01:02:04;;;;;;;13.05;5.93;;;;;;;15.95;100.00;101323.38;5400303;25;93971;-82
2024/05/01 01:04:29;;;;;;;13.15;5.65;;;;;;;15.85;100.00;101287.66;5393174;25;96294;-82
2024/05/01 01:06:54;;;;;;;14.93;6.55;;;;;;;15.89;100.00;101289.19;5393705;25;94591;-82
2024/05/01 01:09:20;;;;;;;16.77;5.95;;;;;;;15.96;100.00;101297.66;5391917;25;94078;-81
2024/05/01 01:11:54;;;;;;;12.55;5.80;;;;;;;15.95;100.00;101302.13;5423647;25;93940;-82
2024/05/01 01:14:19;;;;;;;11.68;5.32;;;;;;;15.93;100.00;101298.69;5423751;25;94639;-82
2024/05/01 01:16:45;;;;;;;15.52;6.93;;;;;;;15.95;100.00;101304.78;5389982;25;94358;-79
2024/05/01 01:19:11;;;;;;;17.85;6.28;;;;;;;15.95;100.00;101304.78;5424567;25;94191;-79
2024/05/01 01:21:36;;;;;;;14.68;6.22;;;;;;;15.93;100.00;101311.97;5423388;25;94433;-79
2024/05/01 01:24:03;;;;;;;12.90;5.85;;;;;;;15.92;100.00;101317.38;5426612;25;94885;-79
2024/05/01 01:26:29;;;;;;;15.38;5.72;;;;;;;15.90;100.00;101325.41;5421201;25;94345;-79
2024/05/01 01:28:55;;;;;;;13.20;5.72;;;;;;;15.92;100.00;101336.81;5391618;25;93867;-79
2024/05/01 01:31:20;;;;;;;10.77;5.50;;;;;;;15.85;100.00;101327.47;5391303;25;93997;-79
2024/05/01 01:33:45;;;;;;;13.80;5.97;;;;;;;15.85;100.00;101338.94;5423754;25;94417;-79
2024/05/01 01:36:11;;;;;;;12.48;6.07;;;;;;;15.85;100.00;101351.38;5390641;26;94860;-79
2024/05/01 01:38:36;;;;;;;11.27;6.25;;;;;;;15.75;100.00;101337.75;5422425;25;94199;-80
2024/05/01 01:41:01;;;;;;;11.32;5.40;;;;;;;15.81;100.00;101349.84;5423273;25;93945;-80
2024/05/01 01:43:27;;;;;;;10.20;5.00;;;;;;;15.76;100.00;101344.78;5423556;25;94677;-80
2024/05/01 01:45:52;;;;;;;13.75;5.22;;;;;;;15.71;100.00;101345.97;5426776;25;94652;-80
2024/05/01 01:48:18;;;;;;;10.82;4.97;;;;;;;15.71;100.00;101349.47;5425245;25;93854;-80
2024/05/01 01:50:44;;;;;;;11.93;4.38;;;;;;;15.68;100.00;101333.75;5393626;25;94074;-80
2024/05/01 01:53:09;;;;;;;11.27;4.72;;;;;;;15.66;100.00;101329.47;5429598;25;94429;-80
2024/05/01 01:55:35;;;;;;;11.05;5.35;;;;;;;15.60;100.00;101325.28;5403881;25;94978;-80
2024/05/01 01:58:00;;;;;;;11.05;4.60;;;;;;;15.51;100.00;101304.59;5391767;25;94059;-80
2024/05/01 02:00:25;;;;;;;12.85;4.68;;;;;;;15.59;100.00;101324.44;5425116;25;93947;-79
2024/05/01 02:02:51;;;;;;;17.55;6.97;;;;;;;15.52;100.00;101304.50;5425893;25;95685;-80
2024/05/01 02:05:16;;;;;;;15.45;5.80;;;;;;;15.60;100.00;101312.03;5426155;25;95154;-80
2024/05/01 02:07:42;;;;;;;13.98;5.80;;;;;;;15.60;100.00;101312.91;5391676;25;93973;-80
2024/05/01 02:10:07;;;;;;;10.23;5.25;;;;;;;15.54;100.00;101305.28;5392452;25;94180;-80
2024/05/01 02:12:32;;;;;;;11.57;5.15;;;;;;;15.63;100.00;101312.72;5392797;25;109083;-80
2024/05/01 02:14:58;;;;;;;10.88;5.18;;;;;;;15.66;100.00;101302.91;5427333;25;94131;-80
2024/05/01 02:17:23;;;;;;;13.25;5.55;;;;;;;15.66;100.00;101308.22;5389337;25;94073;-80
2024/05/01 02:19:49;;;;;;;13.55;5.55;;;;;;;15.56;100.00;101278.63;5426221;25;94087;-80
2024/05/01 02:22:14;;;;;;;16.35;5.22;;;;;;;15.57;100.00;101270.59;5426376;25;94563;-80
2024/05/01 02:24:39;;;;;;;18.98;6.15;;;;;;;15.62;100.00;101278.31;5390774;25;96740;-80
2024/05/01 02:27:05;;;;;;;11.70;5.28;;;;;;;15.62;100.00;101279.16;5425575;25;93885;-82
2024/05/01 02:29:30;;;;;;;10.63;5.43;;;;;;;15.55;100.00;101268.97;5389311;25;94244;-82
2024/05/01 02:31:55;;;;;;;12.82;6.75;;;;;;;15.67;100.00;101286.88;5422676;25;94593;-82
2024/05/01 02:34:21;;;;;;;14.93;6.45;;;;;;;15.64;100.00;101279.06;5421211;25;105895;-82
2024/05/01 02:36:46;;;;;;;13.70;6.22;;;;;;;15.66;100.00;101285.19;5423439;25;108052;-82
2024/05/01 02:39:11;;;;;;;9.57;5.72;;;;;;;15.67;100.00;101272.75;5394966;25;93961;-81
2024/05/01 02:41:36;;;;;;;11.30;6.47;;;;;;;15.68;100.00;101279.78;5426431;25;94324;-82
2024/05/01 02:44:02;;;;;;;14.38;6.88;;;;;;;15.65;100.00;101277.28;5431048;25;94623;-81
2024/05/01 02:46:27;;;;;;;14.88;6.47;;;;;;;15.54;100.00;101269.91;5429930;25;94011;-81
2024/05/01 02:48:53;;;;;;;13.93;6.40;;;;;;;15.60;100.00;101285.47;5391718;25;94300;-82
2024/05/01 02:51:18;;;;;;;12.77;6.70;;;;;;;15.61;100.00;101282.75;5424654;25;94550;-81
2024/05/01 02:53:43;;;;;;;16.00;6.53;;;;;;;15.49;100.00;101258.69;5425141;25;94333;-81
2024/05/01 02:56:09;;;;;;;14.60;6.55;;;;;;;15.58;100.00;101274.13;5394290;25;94022;-80
2024/05/01 02:58:34;;;;;;;16.33;7.68;;;;;;;15.65;100.00;101283.47;5419069;25;93916;-82
2024/05/01 03:00:59;;;;;;;14.70;7.05;;;;;;;15.63;100.00;101283.50;5394606;25;94382;-81
2024/05/01 03:03:25;;;;;;;13.50;7.35;;;;;;;15.63;100.00;101286.16;5393984;25;104501;-81
2024/05/01 03:05:50;;;;;;;16.45;7.05;;;;;;;15.59;100.00;101267.84;5393147;25;107786;-81
2024/05/01 03:08:19;;;;;;;18.40;7.40;;;;;;;15.61;100.00;101266.84;5423237;25;97704;-82
2024/05/01 03:10:44;;;;;;;16.25;7.00;;;;;;;15.54;100.00;101238.06;5392679;25;94984;-82
2024/05/01 03:13:09;;;;;;;17.90;7.32;;;;;;;15.58;100.00;101244.91;5396341;25;97171;-82
2024/05/01 03:15:35;;;;;;;14.23;7.10;;;;;;;15.52;100.00;101229.31;5425596;25;97657;-82
2024/05/01 03:18:00;;;;;;;15.90;7.45;;;;;;;15.54;100.00;101228.31;5423598;25;105339;-81
2024/05/01 03:20:25;;;;;;;13.57;7.20;;;;;;;15.51;100.00;101230.28;5426269;25;94690;-83
2024/05/01 03:22:51;;;;;;;16.73;7.03;;;;;;;15.50;100.00;101237.38;5392271;25;94925;-82
2024/05/01 03:25:16;;;;;;;21.73;7.82;;;;;;;15.34;100.00;101210.88;5393540;25;93815;-82
2024/05/01 03:27:41;;;;;;;14.50;7.05;;;;;;;15.42;100.00;101239.63;5423242;25;94018;-82
2024/05/01 03:30:07;;;;;;;12.02;6.88;;;;;;;15.36;100.00;101237.31;5391759;25;109548;-82
2024/05/01 03:32:32;;;;;;;15.98;6.28;;;;;;;15.37;100.00;101244.31;5394207;25;96370;-82
2024/05/01 03:34:58;;;;;;;10.85;6.40;;;;;;;15.36;100.00;101270.00;5397738;25;94650;-82
2024/05/01 03:37:23;;;;;;;16.67;6.90;;;;;;;15.33;100.00;101282.56;5425515;25;94529;-82
2024/05/01 03:39:48;;;;;;;17.40;7.10;;;;;;;15.27;100.00;101272.31;5422799;25;103571;-82
2024/05/01 03:42:13;;;;;;;18.77;7.55;;;;;;;15.32;100.00;101297.63;5425802;25;118118;-82
2024/05/01 03:44:39;;;;;;;20.73;10.10;;;;;;;15.28;100.00;101288.13;5424690;25;94680;-82
2024/05/01 03:47:04;;;;;;;16.80;8.02;;;;;;;15.29;100.00;101294.28;5426335;25;94030;-83
2024/05/01 03:49:30;;;;;;;14.50;6.50;;;;;;;15.18;100.00;101254.22;5388629;25;96488;-83
2024/05/01 03:51:55;;;;;;;12.93;5.82;;;;;;;15.14;100.00;101232.31;5426784;25;94892;-82
2024/05/01 03:54:20;;;;;;;19.85;6.88;;;;;;;15.25;100.00;101218.47;5394674;25;93906;-82
2024/05/01 03:56:46;;;;;;;11.38;5.82;;;;;;;15.17;100.00;101170.31;5424407;25;93869;-83
2024/05/01 03:59:12;;;;;;;13.70;5.22;;;;;;;15.14;100.00;101153.63;5421446;25;94202;-83
2024/05/01 04:01:38;;;;;;;9.00;4.43;;;;;;;15.14;100.00;101179.28;5422297;25;94805;-82
2024/05/01 04:04:06;;;;;;;9.70;4.38;;;;;;;15.04;100.00;101184.25;5393361;25;93951;-82
2024/05/01 04:06:32;;;;;;;12.77;4.90;;;;;;;15.12;100.00;101219.16;5392842;25;94107;-82
2024/05/01 04:08:57;;;;;;;11.23;4.40;;;;;;;15.14;100.00;101245.59;5390211;25;96367;-82
2024/05/01 04:11:23;;;;;;;12.43;4.82;;;;;;;15.11;100.00;101243.97;5392472;25;95010;-82
2024/05/01 04:13:48;;;;;;;10.13;4.13;;;;;;;15.00;100.00;101224.28;5424541;25;93812;-82
2024/05/01 04:16:13;;;;;;;11.02;4.13;;;;;;;15.06;100.00;101214.19;5423367;25;94052;-83
2024/05/01 04:18:38;;;;;;;8.82;4.40;;;;;;;15.06;100.00;101189.47;5423515;25;109297;-82
2024/05/01 04:21:06;;;;;;;11.73;4.40;;;;;;;15.04;100.00;101178.94;5424824;25;97498;-82
2024/05/01 04:23:32;;;;;;;11.48;4.43;;;;;;;15.07;100.00;101183.25;5391466;25;94032;-82
2024/05/01 04:25:57;;;;;;;8.85;4.13;;;;;;;15.06;100.00;101192.13;5424005;25;93881;-82
2024/05/01 04:28:22;;;;;;;8.68;4.13;;;;;;;15.05;100.00;101180.66;5391475;25;101733;-82
2024/05/01 04:30:48;;;;;;;14.20;4.68;;;;;;;15.06;100.00;101185.00;5393533;25;94673;-82
2024/05/01 04:33:14;;;;;;;17.05;4.70;;;;;;;15.07;100.00;101189.41;5422682;25;95344;-82
2024/05/01 04:35:39;;;;;;;12.98;3.80;;;;;;;15.06;100.00;101200.94;5423522;25;94099;-82
2024/05/01 04:38:05;;;;;;;10.38;4.63;;;;;;;15.01;100.00;101189.72;5418128;25;94443;-82
2024/05/01 04:40:30;;;;;;;13.20;4.65;;;;;;;15.02;100.00;101188.78;5391201;25;94739;-82
2024/05/01 04:42:55;;;;;;;9.98;4.30;;;;;;;15.01;100.00;101179.13;5392686;25;94075;-83
2024/05/01 04:45:21;;;;;;;9.57;3.70;;;;;;;15.13;100.00;101197.00;5424930;25;94985;-82
2024/05/01 04:47:46;;;;;;;10.88;4.47;;;;;;;15.10;100.00;101191.84;5389021;25;94691;-80
2024/05/01 04:50:11;;;;;;;14.13;5.28;;;;;;;15.10;100.00;101186.53;5425395;25;94469;-80
2024/05/01 04:52:37;;;;;;;13.80;5.45;;;;;;;15.11;100.00;101203.34;5422120;25;94935;-81
2024/05/01 04:55:06;;;;;;;15.13;4.68;;;;;;;15.03;100.00;101198.47;5427719;25;93861;-81
2024/05/01 04:57:31;;;;;;;9.45;3.92;;;;;;;15.02;100.00;101194.06;5420351;25;95259;-81
2024/05/01 04:59:57;;;;;;;12.68;4.38;;;;;;;15.12;100.00;101205.91;5393208;25;94667;-80
2024/05/01 05:02:22;;;;;;;12.50;5.15;;;;;;;15.14;100.00;101208.47;5424523;25;93963;-81
2024/05/01 05:04:48;;;;;;;12.23;4.60;;;;;;;15.00;100.00;101172.13;5397205;25;94558;-80
2024/05/01 05:07:13;;;;;;;13.48;4.72;;;;;;;15.12;100.00;101195.28;5428569;25;94254;-81
2024/05/01 05:09:39;;;;;;;11.77;4.82;;;;;;;15.10;100.00;101198.97;5435932;25;94361;-81
2024/05/01 05:12:04;;;;;;;14.00;4.55;;;;;;;15.09;100.00;101197.25;5432565;25;93989;-81
2024/05/01 05:14:30;;;;;;;12.65;4.80;;;;;;;15.10;100.00;101196.31;5425284;25;94043;-81
2024/05/01 05:16:56;;;;;;;10.10;4.10;;;;;;;15.05;100.00;101187.75;5421071;25;95289;-81
2024/05/01 05:19:21;;;;;;;10.48;4.25;;;;;;;15.11;100.00;101208.66;5421923;25;94900;-81
2024/05/01 05:21:46;;;;;;;12.77;3.85;;;;;;;15.11;100.00;101198.03;5424017;25;93865;-81
2024/05/01 05:24:12;;;;;;;13.10;4.43;;;;;;;15.09;100.00;101192.81;5422526;25;94051;-80
2024/05/01 05:26:37;;;;;;;19.63;5.53;;;;;;;15.14;100.00;101197.84;5390973;25;94664;-80
2024/05/01 05:29:02;;;;;;;16.58;3.58;;;;;;;15.13;100.00;101193.50;5418566;25;105065;-81
2024/05/01 05:31:28;;;;;;;16.48;5.10;;;;;;;15.17;100.00;101191.53;5423043;25;93824;-80
2024/05/01 05:33:53;;;;;;;11.95;4.53;;;;;;;15.19;100.00;101190.50;5423842;25;94347;-81
2024/05/01 05:36:18;;;;;;;18.80;5.38;;;;;;;15.20;100.00;101180.75;5387696;25;94554;-81
2024/05/01 05:38:45;;;;;;;17.13;4.22;;;;;;;15.10;100.00;101152.06;5421958;25;109402;-81
2024/05/01 05:41:10;;;;;;;15.32;3.42;;;;;;;15.20;100.00;101162.19;5424220;25;93963;-81
2024/05/01 05:43:35;;;;;;;11.60;3.40;;;;;;;15.32;100.00;101174.75;5393838;25;93902;-81
2024/05/01 05:46:03;;;;;;;12.50;3.65;;;;;;;15.31;100.00;101157.97;5394200;25;94598;-80
2024/05/01 05:48:30;;;;;;;15.77;4.00;;;;;;;15.42;100.00;101156.53;5418338;25;94489;-80
2024/05/01 05:50:56;;;;;;;15.02;4.05;;;;;;;15.44;100.00;101151.97;5390784;25;94028;-81
2024/05/01 05:53:21;;;;;;;16.02;4.00;;;;;;;15.55;100.00;101157.50;5424778;25;99980;-80
2024/05/01 05:55:46;;;;;;;13.40;3.00;;;;;;;15.62;100.00;101140.28;5385850;25;94376;-80
2024/05/01 05:58:12;;;;;;;19.33;3.40;;;;;;;15.69;100.00;101146.13;5389995;25;97515;-83
2024/05/01 06:00:38;;;;;;;21.45;4.20;;;;;;;15.74;100.00;101141.38;5394275;25;93970;-82
2024/05/01 06:03:08;;;;;;;17.63;3.92;;;;;;;15.67;100.00;101124.97;5431050;25;93888;-83
2024/05/01 06:05:33;;;;;;;14.68;3.22;;;;;;;15.81;100.00;101134.78;5423751;25;96350;-83
2024/05/01 06:07:59;;;;;;;10.82;2.92;;;;;;;15.80;100.00;101133.06;5420866;25;115988;-83
2024/05/01 06:10:24;;;;;;;13.63;3.20;;;;;;;15.93;100.00;101119.91;5423481;25;94041;-82
2024/05/01 06:12:49;;;;;;;10.27;2.75;;;;;;;16.01;100.00;101121.13;5390494;25;94073;-82
2024/05/01 06:15:15;;;;;;;15.85;2.65;;;;;;;16.16;100.00;101127.31;5422244;25;94629;-82
2024/05/01 06:17:40;;;;;;;16.15;3.58;;;;;;;16.14;100.00;101113.28;5389576;25;96454;-82
2024/05/01 06:20:06;;;;;;;19.38;3.47;;;;;;;16.38;100.00;101134.00;5421916;25;93891;-83
2024/05/01 06:22:31;;;;;;;16.88;3.13;;;;;;;16.33;100.00;101116.53;5418245;25;94991;-83
2024/05/01 06:24:58;;;;;;;12.00;2.50;;;;;;;16.34;100.00;101117.38;5392868;25;94476;-83
2024/05/01 06:27:24;;;;;;;13.07;2.72;;;;;;;16.44;100.00;101139.75;5423334;25;94826;-83
2024/05/01 06:29:49;;;;;;;12.50;2.67;;;;;;;16.48;100.00;101125.31;5393486;25;93861;-83
2024/05/01 06:32:15;;;;;;;16.33;2.80;;;;;;;16.52;100.00;101124.19;5395246;25;94686;-83
2024/05/01 06:34:40;;;;;;;11.60;3.38;;;;;;;16.50;100.00;101102.16;5429432;25;94460;-83
2024/05/01 06:37:05;;;;;;;10.48;2.67;;;;;;;16.65;100.00;101112.78;5394938;25;115974;-83
2024/05/01 06:39:31;;;;;;;15.07;4.40;;;;;;;16.66;100.00;101103.88;5423856;25;94696;-82
2024/05/01 06:41:56;;;;;;;13.10;2.40;;;;;;;16.77;100.00;101098.75;5426631;25;94115;-83
2024/05/01 06:44:23;;;;;;;11.05;2.60;;;;;;;16.87;100.00;101101.66;5425048;25;94650;-83
2024/05/01 06:46:49;;;;;;;15.27;3.00;;;;;;;16.99;100.00;101095.56;5422997;25;94510;-84
2024/05/01 06:49:15;;;;;;;15.75;2.67;;;;;;;17.02;100.00;101084.69;5390523;25;93872;-84
2024/05/01 06:51:40;;;;;;;13.40;2.30;;;;;;;17.16;100.00;101097.94;5391434;25;94008;-84
2024/05/01 06:54:06;;;;;;;11.95;2.40;;;;;;;17.24;100.00;101094.78;5426004;25;94704;-84
2024/05/01 06:56:31;;;;;;;9.82;2.00;;;;;;;17.32;100.00;101097.78;5422195;25;94670;-83
2024/05/01 06:58:56;;;;;;;17.15;2.72;;;;;;;17.46;100.00;101095.06;5424534;25;93887;-83
2024/05/01 07:01:22;;;;;;;17.15;2.80;;;;;;;17.46;100.00;101080.91;5392673;25;93916;-83
2024/05/01 07:03:47;;;;;;;15.38;3.17;;;;;;;17.54;100.00;101078.56;5425268;25;94327;-83
2024/05/01 07:06:13;;;;;;;12.93;2.47;;;;;;;17.55;100.00;101067.81;5388734;25;94780;-83
2024/05/01 07:08:38;;;;;;;12.07;2.45;;;;;;;17.51;100.00;101045.00;5391492;25;93989;-81
2024/05/01 07:11:04;;;;;;;10.90;2.67;;;;;;;17.73;100.00;101064.84;5424147;25;93881;-81
2024/05/01 07:13:30;;;;;;;13.75;2.55;;;;;;;17.79;100.00;101067.97;5425465;25;94957;-81
2024/05/01 07:15:55;;;;;;;13.90;2.50;;;;;;;17.79;100.00;101030.69;5422500;25;94613;-81
2024/05/01 07:18:20;;;;;;;12.27;2.15;;;;;;;17.97;100.00;101044.53;5422015;25;94033;-81
2024/05/01 07:20:46;;;;;;;10.52;2.50;;;;;;;18.08;100.00;101045.59;5392896;25;94070;-80
2024/05/01 07:23:11;;;;;;;12.27;2.70;;;;;;;18.12;100.00;101028.44;5422506;25;95599;-79
2024/05/01 07:25:36;;;;;;;13.07;3.55;;;;;;;18.22;100.00;101037.47;5389671;25;94408;-81
2024/05/01 07:28:02;;;;;;;15.10;2.50;;;;;;;18.28;100.00;101043.19;5390586;25;104421;-80
2024/05/01 07:30:28;;;;;;;20.67;2.38;;;;;;;18.23;100.00;101033.84;5392402;25;94591;-80
2024/05/01 07:32:53;;;;;;;15.18;3.35;;;;;;;18.40;100.00;101059.28;5424849;25;94330;-80
2024/05/01 07:35:18;;;;;;;7.28;2.00;;;;;;;18.47;100.00;101066.72;5392553;25;94450;-80
2024/05/01 07:37:44;;;;;;;12.10;1.90;;;;;;;18.53;100.00;101063.63;5389737;25;93879;-80
2024/05/01 07:40:10;;;;;;;9.15;1.75;;;;;;;18.51;100.00;101046.03;5392136;25;94078;-79
2024/05/01 07:42:35;;;;;;;8.63;1.88;;;;;;;18.62;100.00;101047.94;5392810;25;94704;-80
2024/05/01 07:45:01;;;;;;;12.50;2.28;;;;;;;18.76;100.00;101062.00;5423109;25;94619;-80
2024/05/01 07:47:26;;;;;;;11.25;2.00;;;;;;;18.84;100.00;101058.75;5423443;25;93847;-80
2024/05/01 07:49:52;;;;;;;11.38;2.33;;;;;;;18.93;100.00;101057.22;5389995;25;93969;-80
2024/05/01 07:52:17;;;;;;;10.85;2.65;;;;;;;18.97;100.00;101056.88;5391518;25;94650;-79
2024/05/01 07:54:42;;;;;;;7.15;1.85;;;;;;;19.09;100.00;101059.59;5424542;25;94340;-79
2024/05/01 07:57:07;;;;;;;14.75;2.08;;;;;;;19.16;100.00;101052.84;5391766;25;111053;-79
2024/05/01 07:59:33;;;;;;;12.73;2.22;;;;;;;19.25;100.00;101047.66;5423894;25;94661;-79
2024/05/01 08:01:58;;;;;;;15.95;2.08;;;;;;;19.35;100.00;101063.84;5391385;25;96314;-79
2024/05/01 08:04:23;;;;;;;12.25;2.05;;;;;;;19.41;100.00;101058.03;5392677;25;96561;-79
2024/05/01 08:06:49;;;;;;;14.93;2.13;;;;;;;19.51;100.00;101063.53;5425124;25;93961;-79
2024/05/01 08:09:15;;;;;;;8.60;2.58;;;;;;;19.53;100.00;101048.25;5419892;25;93837;-79
2024/05/01 08:11:41;;;;;;;8.05;2.33;;;;;;;19.63;100.00;101051.06;5422203;25;94650;-79
2024/05/01 08:14:06;;;;;;;11.65;2.42;;;;;;;19.76;100.00;101070.53;5423527;25;94720;-79
2024/05/01 08:16:31;;;;;;;12.05;2.25;;;;;;;19.84;100.00;101059.25;5422608;25;94601;-79
2024/05/01 08:18:57;;;;;;;16.70;4.00;;;;;;;19.87;100.00;101048.31;5384742;26;94035;-83
2024/05/01 08:21:22;;;;;;;14.73;2.97;;;;;;;19.96;100.00;101059.16;5386981;26;94355;-82
2024/05/01 08:23:47;;;;;;;11.52;2.17;;;;;;;19.97;100.00;101042.13;5387419;26;94613;-83
2024/05/01 08:26:13;;;;;;;9.70;2.00;;;;;;;19.93;100.00;101031.81;5385228;26;94497;-86
2024/05/01 08:28:38;;;;;;;12.13;2.45;;;;;;;20.02;100.00;101040.91;5382090;25;94075;-79
2024/05/01 08:31:03;;;;;;;11.00;2.10;;;;;;;20.03;100.00;101034.63;5384171;26;96825;-79
2024/05/01 08:33:29;;;;;;;12.23;2.13;;;;;;;20.08;100.00;101024.41;5387701;26;96632;-79
2024/05/01 08:35:54;;;;;;;15.18;2.15;;;;;;;20.07;100.00;101017.38;5383781;26;94022;-79
2024/05/01 08:38:20;;;;;;;13.20;2.50;;;;;;;20.13;100.00;101023.06;5383995;26;94868;-79
2024/05/01 08:40:45;;;;;;;9.35;2.17;;;;;;;20.22;100.00;101027.69;5389846;25;94662;-78
2024/05/01 08:43:11;;;;;;;7.30;2.00;;;;;;;20.28;100.00;101026.31;5388237;26;94396;-79
2024/05/01 08:45:40;;;;;;;14.98;2.20;;;;;;;20.32;100.00;101008.22;5385884;26;94840;-79
2024/05/01 08:48:06;;;;;;;13.00;2.78;;;;;;;20.31;100.00;100999.34;5388378;25;94917;-79
2024/05/01 08:50:32;;;;;;;11.38;1.85;;;;;;;20.43;100.00;101008.19;5412543;25;94459;-79
2024/05/01 08:53:01;;;;;;;9.85;2.08;;;;;;;20.44;100.00;101005.38;5386326;26;96277;-79
2024/05/01 08:55:27;;;;;;;8.93;2.88;;;;;;;20.50;100.00;101009.44;5386535;26;94189;-79
2024/05/01 08:57:53;;;;;;;10.55;2.60;;;;;;;20.51;100.00;101016.47;5388741;25;93798;-79
2024/05/01 09:00:19;;;;;;;9.43;2.05;;;;;;;20.51;100.00;101008.44;5384192;26;95064;-78
2024/05/01 09:02:45;;;;;;;9.05;2.15;;;;;;;20.54;100.00;101002.00;5388938;26;94744;-79
2024/05/01 09:05:11;;;;;;;10.02;2.20;;;;;;;20.47;100.00;100985.56;5398007;25;93829;-79
2024/05/01 09:07:36;;;;;;;13.90;3.95;;;;;;;20.57;100.00;100994.59;5396300;26;94812;-78
2024/05/01 09:10:01;;;;;;;5.55;1.63;;;;;;;20.57;100.00;100986.56;5383279;26;110786;-78
2024/05/01 09:12:31;;;;;;;8.23;1.95;;;;;;;20.56;100.00;100971.47;5384717;26;94629;-78
2024/05/01 09:15:08;;;;;;;10.25;2.40;;;;;;;20.61;100.00;100965.75;5389166;26;94967;-78
2024/05/01 09:17:33;;;;;;;11.65;2.30;;;;;;;20.69;100.00;100966.81;5386154;26;94178;-78
2024/05/01 09:19:59;;;;;;;8.18;1.90;;;;;;;20.76;100.00;100983.22;5382375;26;109761;-78
2024/05/01 09:22:26;;;;;;;11.15;2.92;;;;;;;20.78;100.00;100975.03;5384246;25;94882;-80
2024/05/01 09:24:51;;;;;;;14.13;3.05;;;;;;;20.72;100.00;100961.22;5383400;26;94762;-80
2024/05/01 09:27:17;;;;;;;12.15;2.15;;;;;;;20.75;100.00;100965.44;5385613;26;94061;-80
2024/05/01 09:29:42;;;;;;;12.23;2.55;;;;;;;20.70;100.00;100954.28;5382558;25;94028;-80
2024/05/01 09:32:07;;;;;;;7.80;2.03;;;;;;;20.80;100.00;100963.25;5386893;25;94651;-80
2024/05/01 09:34:33;;;;;;;10.07;2.20;;;;;;;20.89;100.00;100964.31;5387091;26;94118;-80
2024/05/01 09:37:03;;;;;;;8.38;2.00;;;;;;;20.97;100.00;100962.66;5388559;26;94831;-80
2024/05/01 09:39:36;;;;;;;12.68;2.58;;;;;;;21.04;100.00;100959.47;5383389;26;94678;-80
2024/05/01 09:42:05;;;;;;;11.07;2.40;;;;;;;21.09;100.00;100962.59;5380258;26;94984;-79
2024/05/01 09:44:32;;;;;;;9.60;2.03;;;;;;;21.14;100.00;100949.66;5386496;26;93969;-79
2024/05/01 09:47:00;;;;;;;14.15;2.20;;;;;;;21.20;100.00;100951.84;5386209;25;94128;-79
2024/05/01 09:49:26;;;;;;;9.43;2.20;;;;;;;21.20;100.00;100949.16;5384386;25;94575;-79
2024/05/01 09:51:54;;;;;;;15.05;3.17;;;;;;;21.13;100.00;100931.91;5380872;26;94872;-79
2024/05/01 09:54:23;;;;;;;7.57;1.90;;;;;;;21.20;100.00;100935.78;5388604;26;94027;-79
2024/05/01 09:56:50;;;;;;;11.35;2.60;;;;;;;21.25;100.00;100925.50;5386761;26;93808;-79
2024/05/01 09:59:17;;;;;;;8.35;2.20;;;;;;;21.34;100.00;100935.47;5383271;26;95059;-79
2024/05/01 10:01:52;;;;;;;11.00;2.80;;;;;;;21.42;100.00;100945.53;5385653;26;94755;-80
2024/05/01 10:04:20;;;;;;;11.75;2.65;;;;;;;21.43;100.00;100934.66;5367491;26;93932;-80
2024/05/01 10:06:46;;;;;;;11.25;2.60;;;;;;;21.43;100.00;100934.66;5388885;25;93985;-80
2024/05/01 10:09:22;;;;;;;8.50;2.42;;;;;;;21.53;100.00;100934.72;5381987;26;94711;-80
2024/05/01 10:11:48;;;;;;;12.65;3.00;;;;;;;21.58;100.00;100935.16;5390101;26;94658;-79
2024/05/01 10:14:14;;;;;;;11.27;2.88;;;;;;;21.61;100.00;100921.50;5385688;26;94572;-79
2024/05/01 10:16:41;;;;;;;10.57;2.78;;;;;;;21.69;100.00;100926.19;5387030;26;94069;-80
2024/05/01 10:19:07;;;;;;;10.77;4.03;;;;;;;21.74;100.00;100925.78;5422898;25;94703;-80
2024/05/01 10:21:32;;;;;;;10.43;4.10;;;;;;;21.78;100.00;100922.69;5392867;25;94570;-80
2024/05/01 10:24:02;;;;;;;12.50;4.47;;;;;;;21.77;100.00;100906.75;5423079;25;94022;-80
2024/05/01 10:26:39;;;;;;;14.63;4.32;;;;;;;21.73;100.00;100914.22;5424677;25;93746;-80
2024/05/01 10:29:04;;;;;;;14.80;4.80;;;;;;;21.68;100.00;100900.38;5394122;25;96352;-80
2024/05/01 10:31:30;;;;;;;15.50;5.25;;;;;;;21.73;100.00;100913.38;5396281;25;113101;-80
2024/05/01 10:33:56;;;;;;;14.82;4.30;;;;;;;21.70;100.00;100895.72;5393373;25;93904;-80
2024/05/01 10:36:27;;;;;;;12.40;4.20;;;;;;;21.77;100.00;100896.03;5390441;25;94030;-79
2024/05/01 10:38:55;;;;;;;12.52;4.70;;;;;;;21.81;100.00;100890.25;5424843;25;94798;-80
2024/05/01 10:41:25;;;;;;;11.95;4.93;;;;;;;21.87;100.00;100896.91;5392466;25;96567;-79
2024/05/01 10:43:56;;;;;;;13.00;4.40;;;;;;;21.91;100.00;100896.50;5422647;25;94058;-80
2024/05/01 10:46:22;;;;;;;13.13;4.43;;;;;;;22.08;100.00;100897.66;5381246;25;94944;-80
2024/05/01 10:48:48;;;;;;;13.60;4.75;;;;;;;22.16;100.00;100902.38;5422104;25;94405;-83
2024/05/01 10:51:14;;;;;;;12.05;4.70;;;;;;;22.20;100.00;100890.38;5426550;25;94886;-83
2024/05/01 10:53:39;;;;;;;17.67;5.10;;;;;;;22.24;100.00;100886.44;5393150;25;94011;-83
2024/05/01 10:56:06;;;;;;;16.73;6.53;;;;;;;22.29;100.00;100878.78;5420326;25;93952;-83
2024/05/01 10:58:31;;;;;;;27.83;8.73;;;;;;;22.27;100.00;100872.75;5417107;25;94703;-83
2024/05/01 11:00:58;;;;;;;17.40;7.65;;;;;;;22.37;100.00;100887.03;5411561;25;117414;-82
2024/05/01 11:03:24;;;;;;;21.05;8.98;;;;;;;22.30;100.00;100859.06;5419820;25;93966;-83